Time;durP1;ratioP1;P1;durP2;ratioP2;P2;SDS_P1;SDS_P2;PMS_P1;PMS_P2;Temp;Humidity;BMP_temperature;BMP_pressure;BME280_temperature;BME280_humidity;BME280_pressure;Samples;Min_cycle;Max_cycle;Signal;HPM_P1;HPM_P2
2023/12/02 00:00:04;;;;;;;39.10;14.63;;;2.00;95.70;;;;;;5096911;28;20028;-76
2023/12/02 00:02:29;;;;;;;37.03;13.82;;;2.00;95.70;;;;;;5092720;28;20043;-76
2023/12/02 00:04:55;;;;;;;39.58;15.30;;;2.00;95.80;;;;;;5089440;28;20442;-77
2023/12/02 00:07:21;;;;;;;35.13;14.55;;;2.00;95.60;;;;;;5095657;28;20130;-76
2023/12/02 00:09:46;;;;;;;35.00;14.70;;;1.90;95.60;;;;;;5095710;28;20114;-76
2023/12/02 00:12:12;;;;;;;37.08;15.55;;;1.60;96.30;;;;;;5092630;28;20123;-77
2023/12/02 00:14:38;;;;;;;37.42;15.65;;;1.60;96.60;;;;;;5095507;28;20016;-77
2023/12/02 00:17:03;;;;;;;44.38;16.30;;;1.50;96.80;;;;;;5092952;28;20027;-78
2023/12/02 00:19:29;;;;;;;41.28;16.00;;;1.40;97.00;;;;;;5093822;28;20027;-77
2023/12/02 00:21:55;;;;;;;39.75;16.92;;;1.40;97.20;;;;;;5088378;28;20106;-78
2023/12/02 00:24:20;;;;;;;40.42;16.80;;;1.40;97.10;;;;;;5089626;28;20105;-78
2023/12/02 00:26:46;;;;;;;41.45;16.58;;;1.40;97.10;;;;;;5078062;28;20028;-77
2023/12/02 00:29:11;;;;;;;43.22;16.48;;;1.30;97.30;;;;;;5094520;28;20027;-77
2023/12/02 00:31:37;;;;;;;44.30;16.52;;;1.40;97.40;;;;;;5093290;28;20756;-77
2023/12/02 00:34:02;;;;;;;41.00;14.35;;;1.30;97.30;;;;;;5087348;28;20012;-77
2023/12/02 00:36:31;;;;;;;39.97;15.20;;;1.30;97.30;;;;;;5092108;28;20041;-76
2023/12/02 00:38:57;;;;;;;36.08;14.77;;;1.30;97.30;;;;;;5083102;28;20020;-77
2023/12/02 00:41:22;;;;;;;37.25;14.75;;;1.30;97.20;;;;;;5082635;28;20524;-76
2023/12/02 00:43:48;;;;;;;37.40;15.18;;;1.20;97.40;;;;;;5088700;28;20075;-76
2023/12/02 00:46:13;;;;;;;38.10;14.70;;;1.30;97.50;;;;;;5084167;28;20399;-76
2023/12/02 00:48:39;;;;;;;33.40;13.15;;;1.40;97.20;;;;;;5087120;28;20042;-76
2023/12/02 00:51:05;;;;;;;32.45;12.88;;;1.40;96.80;;;;;;5089704;28;20229;-75
2023/12/02 00:53:31;;;;;;;33.67;12.68;;;1.50;96.90;;;;;;5087694;28;20255;-75
2023/12/02 00:55:57;;;;;;;37.55;13.90;;;1.60;96.60;;;;;;5089026;28;20109;-76
2023/12/02 00:58:23;;;;;;;31.23;12.57;;;1.60;96.20;;;;;;5090384;28;20039;-76
2023/12/02 01:00:48;;;;;;;31.92;12.77;;;1.60;96.30;;;;;;5093594;28;20135;-76
2023/12/02 01:03:14;;;;;;;35.28;13.75;;;1.70;96.40;;;;;;5088887;28;20030;-76
2023/12/02 01:05:40;;;;;;;34.45;13.20;;;1.70;96.20;;;;;;5092365;28;20122;-78
2023/12/02 01:08:05;;;;;;;32.50;12.82;;;1.80;95.90;;;;;;5090578;28;20031;-78
2023/12/02 01:10:31;;;;;;;33.78;12.65;;;1.80;95.70;;;;;;5089969;28;20131;-77
2023/12/02 01:12:56;;;;;;;30.17;12.27;;;1.80;95.60;;;;;;5092255;28;20451;-77
2023/12/02 01:15:22;;;;;;;30.92;12.00;;;1.80;95.50;;;;;;5090446;28;20104;-77
2023/12/02 01:17:48;;;;;;;31.88;12.52;;;1.70;95.60;;;;;;5092693;28;20131;-78
2023/12/02 01:20:13;;;;;;;29.73;12.23;;;1.80;95.60;;;;;;5092037;28;20022;-78
2023/12/02 01:22:39;;;;;;;28.05;11.35;;;1.80;95.40;;;;;;5092360;28;20329;-75
2023/12/02 01:25:05;;;;;;;31.20;12.35;;;1.80;95.30;;;;;;5097675;28;20056;-75
2023/12/02 01:27:31;;;;;;;31.60;12.35;;;1.80;95.30;;;;;;5093964;28;20716;-78
2023/12/02 01:29:56;;;;;;;29.55;11.38;;;1.90;95.20;;;;;;5096961;28;20046;-77
2023/12/02 01:32:22;;;;;;;30.52;12.07;;;1.70;95.00;;;;;;5089850;28;20042;-76
2023/12/02 01:34:47;;;;;;;30.70;11.80;;;1.60;95.20;;;;;;5089134;28;20521;-77
2023/12/02 01:37:13;;;;;;;28.52;11.63;;;1.60;95.80;;;;;;5092712;28;20539;-75
2023/12/02 01:39:39;;;;;;;29.58;11.40;;;1.60;95.60;;;;;;5092521;28;20169;-77
2023/12/02 01:42:05;;;;;;;30.88;10.95;;;1.60;95.60;;;;;;5092075;28;20084;-78
2023/12/02 01:44:31;;;;;;;25.88;10.35;;;1.60;95.50;;;;;;5093629;28;20112;-78
2023/12/02 01:46:57;;;;;;;27.77;11.27;;;1.60;95.30;;;;;;5094996;28;20027;-78
2023/12/02 01:49:24;;;;;;;25.85;10.98;;;1.70;95.40;;;;;;5088333;28;20032;-75
2023/12/02 01:51:50;;;;;;;24.85;9.65;;;1.70;95.40;;;;;;5091773;28;20032;-75
2023/12/02 01:54:17;;;;;;;25.65;10.07;;;1.70;95.10;;;;;;5095417;28;20015;-75
2023/12/02 01:56:43;;;;;;;29.13;11.32;;;1.70;95.30;;;;;;5091457;28;20028;-75
2023/12/02 01:59:11;;;;;;;26.38;10.00;;;1.80;95.10;;;;;;5094467;28;20040;-75
2023/12/02 02:01:36;;;;;;;24.90;10.13;;;1.80;95.00;;;;;;5092066;28;20032;-76
2023/12/02 02:04:03;;;;;;;28.42;10.93;;;1.90;95.10;;;;;;5088551;28;20085;-75
2023/12/02 02:06:28;;;;;;;25.38;10.80;;;2.00;94.90;;;;;;5096758;28;20050;-76
2023/12/02 02:08:54;;;;;;;27.02;11.13;;;2.00;94.80;;;;;;5101047;28;20471;-78
2023/12/02 02:11:19;;;;;;;29.83;11.20;;;2.00;94.60;;;;;;5099966;28;20020;-75
2023/12/02 02:13:45;;;;;;;29.23;11.63;;;1.70;95.00;;;;;;5099571;28;20051;-78
2023/12/02 02:16:12;;;;;;;32.80;11.85;;;1.40;95.60;;;;;;5094206;28;20398;-78
2023/12/02 02:18:38;;;;;;;24.33;9.88;;;1.40;96.00;;;;;;5095535;28;20467;-77
2023/12/02 02:21:04;;;;;;;29.05;10.35;;;1.40;96.00;;;;;;5095912;28;20061;-77
2023/12/02 02:23:29;;;;;;;32.47;11.13;;;1.50;96.20;;;;;;5093223;28;20391;-77
2023/12/02 02:25:55;;;;;;;29.83;11.13;;;1.50;95.90;;;;;;5095374;28;20067;-75
2023/12/02 02:28:22;;;;;;;28.15;10.13;;;1.50;95.70;;;;;;5094138;28;20031;-76
2023/12/02 02:30:48;;;;;;;27.75;10.65;;;1.40;96.00;;;;;;5098405;28;20463;-76
2023/12/02 02:33:15;;;;;;;23.73;9.50;;;1.50;96.00;;;;;;5094924;28;20111;-76
2023/12/02 02:35:41;;;;;;;23.65;9.60;;;1.40;95.60;;;;;;5090299;28;20574;-78
2023/12/02 02:38:07;;;;;;;27.98;10.15;;;1.30;95.90;;;;;;5088498;28;20035;-75
2023/12/02 02:40:32;;;;;;;23.73;9.32;;;1.20;96.10;;;;;;5098030;28;20494;-75
2023/12/02 02:42:58;;;;;;;22.42;9.88;;;1.30;96.40;;;;;;5098221;28;20035;-75
2023/12/02 02:45:24;;;;;;;26.88;9.68;;;1.40;96.30;;;;;;5092543;28;20159;-75
2023/12/02 02:47:50;;;;;;;28.55;10.15;;;1.50;95.70;;;;;;5098063;28;20110;-77
2023/12/02 02:50:16;;;;;;;25.73;9.50;;;1.60;95.90;;;;;;5096401;28;20035;-75
2023/12/02 02:52:42;;;;;;;24.48;9.68;;;1.60;95.30;;;;;;5095368;28;20031;-78
2023/12/02 02:55:08;;;;;;;23.23;9.00;;;1.50;95.80;;;;;;5093516;28;20032;-77
2023/12/02 02:57:34;;;;;;;26.23;9.60;;;1.50;95.80;;;;;;5088600;28;20369;-77
2023/12/02 03:00:00;;;;;;;23.42;9.52;;;1.50;95.40;;;;;;5098229;28;20106;-78
2023/12/02 03:02:25;;;;;;;24.48;9.07;;;1.50;95.60;;;;;;5081828;28;20502;-77
2023/12/02 03:04:51;;;;;;;20.63;8.43;;;1.50;95.60;;;;;;5086065;28;20425;-77
2023/12/02 03:07:17;;;;;;;27.17;9.68;;;1.50;95.60;;;;;;5091365;28;20020;-76
2023/12/02 03:09:42;;;;;;;22.38;9.52;;;1.60;95.60;;;;;;5090687;28;20107;-77
2023/12/02 03:12:10;;;;;;;22.65;9.18;;;1.60;95.50;;;;;;5088453;28;20486;-77
2023/12/02 03:14:37;;;;;;;20.08;9.15;;;1.60;95.40;;;;;;5092822;28;20036;-77
2023/12/02 03:17:03;;;;;;;24.02;9.60;;;1.60;95.30;;;;;;5086829;28;20011;-77
2023/12/02 03:19:29;;;;;;;21.90;9.10;;;1.50;95.40;;;;;;5091388;28;20418;-77
2023/12/02 03:21:55;;;;;;;26.60;9.98;;;1.30;95.40;;;;;;5085929;28;20483;-77
2023/12/02 03:24:20;;;;;;;25.33;10.63;;;1.00;96.10;;;;;;5086641;28;20081;-77
2023/12/02 03:26:46;;;;;;;22.90;9.38;;;1.00;96.70;;;;;;5091464;28;20069;-77
2023/12/02 03:29:12;;;;;;;21.25;8.68;;;1.10;97.20;;;;;;5092005;28;20020;-77
2023/12/02 03:31:37;;;;;;;19.55;8.45;;;1.00;96.30;;;;;;5090358;28;20040;-78
2023/12/02 03:34:03;;;;;;;23.58;8.27;;;1.10;96.70;;;;;;5087997;28;20054;-77
2023/12/02 03:36:30;;;;;;;21.35;8.27;;;1.10;96.40;;;;;;5091206;28;20035;-77
2023/12/02 03:38:56;;;;;;;19.65;8.48;;;1.20;96.20;;;;;;5090415;28;20035;-77
2023/12/02 03:41:22;;;;;;;16.88;7.50;;;1.30;96.00;;;;;;5096079;28;20234;-77
2023/12/02 03:43:47;;;;;;;20.70;8.27;;;1.40;95.50;;;;;;5105295;28;20221;-78
2023/12/02 03:46:13;;;;;;;20.35;8.23;;;1.50;95.20;;;;;;5098091;28;20101;-77
2023/12/02 03:48:38;;;;;;;19.52;7.80;;;1.60;95.00;;;;;;5092160;28;20104;-77
2023/12/02 03:51:04;;;;;;;25.33;9.15;;;1.60;95.10;;;;;;5091167;28;20031;-76
2023/12/02 03:53:34;;;;;;;22.63;8.98;;;1.60;95.00;;;;;;5095281;28;20225;-75
2023/12/02 03:56:00;;;;;;;22.55;8.65;;;1.70;94.80;;;;;;5095950;28;20115;-78
2023/12/02 03:58:27;;;;;;;20.30;8.95;;;1.80;94.60;;;;;;5088329;28;20115;-77
2023/12/02 04:00:53;;;;;;;25.65;10.98;;;1.90;94.70;;;;;;5087922;28;20107;-77
2023/12/02 04:03:19;;;;;;;21.05;8.75;;;1.80;94.60;;;;;;5091499;28;20024;-76
2023/12/02 04:05:45;;;;;;;21.08;9.05;;;1.80;94.30;;;;;;5087379;28;20123;-78
2023/12/02 04:08:11;;;;;;;21.52;8.70;;;1.50;94.50;;;;;;5098812;28;20499;-78
2023/12/02 04:10:36;;;;;;;21.70;8.48;;;1.40;95.10;;;;;;5101653;28;20039;-76
2023/12/02 04:13:03;;;;;;;22.65;8.52;;;1.40;95.10;;;;;;5104057;28;20523;-76
2023/12/02 04:15:29;;;;;;;19.65;8.45;;;1.40;94.90;;;;;;5102771;28;20502;-75
2023/12/02 04:17:54;;;;;;;18.13;8.07;;;1.10;95.50;;;;;;5093448;28;20020;-77
2023/12/02 04:20:21;;;;;;;21.58;8.10;;;1.20;95.90;;;;;;5098376;28;20146;-76
2023/12/02 04:22:47;;;;;;;18.48;8.18;;;1.00;95.60;;;;;;5092085;28;20027;-76
2023/12/02 04:25:13;;;;;;;19.48;8.27;;;1.10;95.80;;;;;;5094849;28;20475;-77
2023/12/02 04:27:41;;;;;;;22.00;8.13;;;1.20;95.90;;;;;;5091198;28;20127;-77
2023/12/02 04:30:08;;;;;;;19.02;7.88;;;1.20;95.70;;;;;;5089917;28;20023;-76
2023/12/02 04:32:34;;;;;;;17.05;7.25;;;1.40;95.30;;;;;;5089465;28;20084;-77
2023/12/02 04:34:59;;;;;;;18.08;7.65;;;1.40;95.10;;;;;;5093755;28;20410;-77
2023/12/02 04:37:25;;;;;;;18.50;8.32;;;1.40;94.90;;;;;;5092801;28;20020;-77
2023/12/02 04:39:53;;;;;;;19.55;8.05;;;1.40;95.40;;;;;;5096027;28;20030;-77
2023/12/02 04:42:19;;;;;;;18.50;8.27;;;1.30;95.20;;;;;;5097780;28;20035;-77
2023/12/02 04:44:45;;;;;;;17.98;7.43;;;1.20;95.60;;;;;;5093174;28;20044;-74
2023/12/02 04:47:10;;;;;;;18.17;7.50;;;1.30;95.70;;;;;;5092685;28;20478;-76
2023/12/02 04:49:36;;;;;;;19.27;9.00;;;1.40;95.40;;;;;;5095830;28;20038;-76
2023/12/02 04:52:01;;;;;;;21.83;8.60;;;1.50;95.10;;;;;;5091939;28;20269;-76
2023/12/02 04:54:27;;;;;;;21.55;9.23;;;1.40;94.70;;;;;;5090572;28;20035;-76
2023/12/02 04:56:53;;;;;;;20.20;8.38;;;1.30;95.40;;;;;;5093152;28;20050;-77
2023/12/02 04:59:18;;;;;;;21.75;8.23;;;1.40;95.50;;;;;;5091663;28;20517;-77
2023/12/02 05:01:44;;;;;;;18.80;7.65;;;1.50;95.30;;;;;;5086467;28;20035;-76
2023/12/02 05:04:09;;;;;;;20.13;7.55;;;1.10;95.30;;;;;;5087479;28;20034;-76
2023/12/02 05:06:35;;;;;;;18.27;7.78;;;1.10;96.10;;;;;;5089048;28;20524;-75
2023/12/02 05:09:00;;;;;;;21.30;8.38;;;1.00;96.30;;;;;;5095289;28;20035;-75
2023/12/02 05:11:27;;;;;;;20.85;8.48;;;1.00;96.50;;;;;;5093636;28;20439;-76
2023/12/02 05:13:52;;;;;;;16.25;7.38;;;1.10;96.40;;;;;;5093718;28;20056;-76
2023/12/02 05:16:19;;;;;;;21.98;8.10;;;1.00;96.20;;;;;;5093602;28;20032;-76
2023/12/02 05:18:45;;;;;;;22.38;8.25;;;1.10;96.50;;;;;;5096260;28;20055;-75
2023/12/02 05:21:11;;;;;;;20.80;8.38;;;1.30;96.20;;;;;;5091766;28;20257;-76
2023/12/02 05:23:37;;;;;;;22.02;8.63;;;1.40;95.80;;;;;;5088525;28;20043;-76
2023/12/02 05:26:03;;;;;;;23.25;9.15;;;1.40;95.60;;;;;;5090785;28;20248;-76
2023/12/02 05:28:28;;;;;;;19.85;8.38;;;1.40;95.60;;;;;;5086965;28;20023;-75
2023/12/02 05:30:54;;;;;;;19.90;8.68;;;1.40;95.40;;;;;;5089612;28;20066;-76
2023/12/02 05:33:22;;;;;;;21.73;8.65;;;1.40;95.30;;;;;;5089427;28;20505;-76
2023/12/02 05:35:48;;;;;;;20.35;9.13;;;1.00;95.90;;;;;;5089881;28;20481;-76
2023/12/02 05:38:14;;;;;;;24.45;9.45;;;0.80;96.90;;;;;;5090588;28;20119;-75
2023/12/02 05:40:39;;;;;;;22.20;8.38;;;0.70;97.10;;;;;;5093298;28;20099;-76
2023/12/02 05:43:05;;;;;;;23.98;9.20;;;0.50;97.50;;;;;;5087485;28;20040;-78
2023/12/02 05:45:30;;;;;;;20.65;8.73;;;0.60;97.80;;;;;;5093978;28;20048;-75
2023/12/02 05:47:56;;;;;;;22.58;9.07;;;0.60;97.60;;;;;;5091668;28;20145;-77
2023/12/02 05:50:22;;;;;;;20.77;7.75;;;0.70;97.50;;;;;;5088741;28;20071;-76
2023/12/02 05:52:47;;;;;;;23.02;8.93;;;0.80;97.50;;;;;;5090650;28;20016;-76
2023/12/02 05:55:13;;;;;;;21.10;8.63;;;1.10;97.20;;;;;;5091739;28;20035;-76
2023/12/02 05:57:39;;;;;;;22.20;9.05;;;1.20;96.50;;;;;;5093585;28;20031;-76
2023/12/02 06:00:05;;;;;;;23.30;8.90;;;1.10;96.40;;;;;;5087359;28;20043;-76
2023/12/02 06:02:31;;;;;;;20.88;8.27;;;1.20;96.40;;;;;;5090211;28;20078;-76
2023/12/02 06:04:56;;;;;;;20.25;8.35;;;1.30;96.20;;;;;;5091523;28;20074;-76
2023/12/02 06:07:22;;;;;;;19.20;8.07;;;1.30;95.90;;;;;;5092293;28;20043;-76
2023/12/02 06:09:48;;;;;;;23.38;8.50;;;1.30;95.60;;;;;;5090611;28;20387;-76
2023/12/02 06:12:13;;;;;;;20.30;8.80;;;1.30;95.60;;;;;;5087743;28;20017;-77
2023/12/02 06:14:39;;;;;;;23.02;8.40;;;1.20;95.60;;;;;;5097912;28;20051;-77
2023/12/02 06:17:05;;;;;;;19.27;7.88;;;0.90;96.30;;;;;;5095389;28;20040;-78
2023/12/02 06:19:31;;;;;;;19.60;8.00;;;0.90;96.60;;;;;;5096275;28;20100;-78
2023/12/02 06:21:57;;;;;;;19.15;7.60;;;0.70;96.40;;;;;;5088957;28;20035;-77
2023/12/02 06:24:22;;;;;;;22.08;9.23;;;0.60;97.10;;;;;;5095564;28;20155;-77
2023/12/02 06:26:48;;;;;;;19.48;7.68;;;0.60;97.40;;;;;;5093665;28;20098;-77
2023/12/02 06:29:15;;;;;;;23.40;9.18;;;0.60;97.30;;;;;;5096258;28;20157;-76
2023/12/02 06:31:41;;;;;;;22.25;8.45;;;0.60;97.50;;;;;;5089675;28;20024;-77
2023/12/02 06:34:07;;;;;;;23.40;8.68;;;0.40;97.70;;;;;;5094287;28;20038;-77
2023/12/02 06:36:33;;;;;;;23.42;8.63;;;0.30;98.00;;;;;;5100237;28;20028;-77
2023/12/02 06:38:58;;;;;;;22.90;8.32;;;0.30;98.30;;;;;;5096017;28;20020;-76
2023/12/02 06:41:24;;;;;;;19.45;7.75;;;0.20;98.40;;;;;;5093429;28;20516;-77
2023/12/02 06:43:50;;;;;;;25.05;8.52;;;0.20;98.70;;;;;;5095257;28;20020;-77
2023/12/02 06:46:23;;;;;;;20.75;8.75;;;0.20;98.60;;;;;;5086294;28;20079;-77
2023/12/02 06:48:50;;;;;;;22.65;9.32;;;0.30;98.60;;;;;;5097534;28;20089;-77
2023/12/02 06:51:16;;;;;;;23.42;9.02;;;0.50;98.50;;;;;;5099376;28;20024;-77
2023/12/02 06:53:41;;;;;;;20.13;8.57;;;0.50;98.10;;;;;;5094638;28;21233;-77
2023/12/02 06:56:23;;;;;;;21.00;8.95;;;0.60;97.80;;;;;;5094335;28;20314;-76
2023/12/02 06:58:50;;;;;;;16.90;7.05;;;0.50;97.40;;;;;;5093411;28;20055;-76
2023/12/02 07:01:32;;;;;;;21.13;7.68;;;0.30;97.80;;;;;;5095857;28;20024;-78
2023/12/02 07:03:59;;;;;;;22.45;8.43;;;0.10;98.40;;;;;;5094377;28;20549;-77
2023/12/02 07:06:26;;;;;;;20.98;8.95;;;0.10;98.90;;;;;;5092124;28;20020;-77
2023/12/02 07:08:53;;;;;;;27.30;8.90;;;0.20;98.70;;;;;;5095476;28;20032;-77
2023/12/02 07:11:19;;;;;;;21.17;7.88;;;0.10;98.70;;;;;;5086959;28;20055;-77
2023/12/02 07:13:51;;;;;;;24.10;8.85;;;0.10;98.90;;;;;;5089214;28;20106;-78
2023/12/02 07:16:17;;;;;;;26.70;9.82;;;0.10;98.90;;;;;;5085109;28;21393;-77
2023/12/02 07:18:43;;;;;;;23.58;8.43;;;0.10;99.10;;;;;;5092637;28;20032;-77
2023/12/02 07:21:09;;;;;;;27.58;10.20;;;0.10;99.10;;;;;;5091236;28;20069;-77
2023/12/02 07:23:35;;;;;;;24.60;9.23;;;0.20;99.20;;;;;;5090184;28;20040;-77
2023/12/02 07:26:01;;;;;;;24.15;9.20;;;0.00;99.00;;;;;;5084998;28;20049;-77
2023/12/02 07:28:26;;;;;;;29.50;9.85;;;-0.10;99.10;;;;;;5090579;28;20036;-76
2023/12/02 07:30:52;;;;;;;32.78;10.00;;;-0.10;99.40;;;;;;5088749;28;20024;-77
2023/12/02 07:33:19;;;;;;;22.58;8.07;;;-0.20;99.50;;;;;;5084974;28;20069;-77
2023/12/02 07:35:45;;;;;;;25.38;8.55;;;-0.10;99.80;;;;;;5090924;28;20024;-78
2023/12/02 07:38:11;;;;;;;32.97;10.90;;;-0.20;99.50;;;;;;5099362;28;20122;-77
2023/12/02 07:40:36;;;;;;;25.25;8.60;;;-0.10;99.70;;;;;;5103455;28;20636;-77
2023/12/02 07:43:02;;;;;;;24.65;8.93;;;0.00;99.80;;;;;;5099266;28;20023;-77
2023/12/02 07:45:28;;;;;;;30.00;11.05;;;0.10;99.70;;;;;;5096837;28;20051;-77
2023/12/02 07:47:54;;;;;;;27.55;10.88;;;0.30;99.20;;;;;;5096580;28;20030;-77
2023/12/02 07:50:20;;;;;;;28.75;9.95;;;0.30;98.80;;;;;;5099387;28;20046;-77
2023/12/02 07:52:46;;;;;;;32.70;10.38;;;0.20;98.50;;;;;;5091196;28;20036;-76
2023/12/02 07:55:12;;;;;;;35.42;10.20;;;0.00;98.80;;;;;;5097734;28;20743;-76
2023/12/02 07:57:38;;;;;;;24.33;8.80;;;0.00;99.10;;;;;;5094591;28;20030;-78
2023/12/02 08:00:05;;;;;;;27.00;8.73;;;0.00;99.10;;;;;;5088286;28;20357;-75
2023/12/02 08:02:30;;;;;;;22.73;8.00;;;-0.10;99.10;;;;;;5087661;28;20015;-77
2023/12/02 08:04:57;;;;;;;20.27;7.85;;;0.00;99.20;;;;;;5091487;28;20012;-78
2023/12/02 08:07:23;;;;;;;22.10;8.57;;;0.20;98.90;;;;;;5094852;28;20039;-78
2023/12/02 08:09:49;;;;;;;24.65;8.98;;;0.30;98.40;;;;;;5093530;28;20028;-78
2023/12/02 08:12:15;;;;;;;19.85;8.27;;;0.60;97.90;;;;;;5090479;28;20043;-77
2023/12/02 08:14:41;;;;;;;25.83;8.48;;;0.70;97.30;;;;;;5093507;28;20024;-77
2023/12/02 08:17:07;;;;;;;22.27;8.43;;;0.80;96.90;;;;;;5089733;28;20035;-76
2023/12/02 08:19:33;;;;;;;22.85;9.00;;;0.90;96.70;;;;;;5093573;28;20093;-76
2023/12/02 08:21:59;;;;;;;29.85;9.68;;;1.10;96.40;;;;;;5089479;28;20084;-76
2023/12/02 08:24:25;;;;;;;20.85;8.15;;;0.80;95.90;;;;;;5093821;28;20032;-76
2023/12/02 08:26:50;;;;;;;21.80;8.30;;;0.70;96.60;;;;;;5090619;28;20231;-76
2023/12/02 08:29:16;;;;;;;24.73;9.32;;;0.80;96.70;;;;;;5085232;28;20032;-76
2023/12/02 08:31:42;;;;;;;24.85;8.85;;;1.00;96.70;;;;;;5093944;28;20172;-76
2023/12/02 08:34:07;;;;;;;21.90;8.25;;;1.10;96.10;;;;;;5091323;28;20091;-76
2023/12/02 08:36:33;;;;;;;29.55;10.43;;;0.90;95.50;;;;;;5088839;28;20007;-76
2023/12/02 08:38:58;;;;;;;27.60;9.57;;;0.60;96.40;;;;;;5083618;28;20096;-76
2023/12/02 08:41:24;;;;;;;31.38;9.90;;;0.40;97.20;;;;;;5084386;28;20018;-76
2023/12/02 08:43:50;;;;;;;28.35;10.18;;;0.30;97.60;;;;;;5089799;28;20288;-76
2023/12/02 08:46:16;;;;;;;30.80;9.63;;;0.20;98.00;;;;;;5089395;28;20073;-77
2023/12/02 08:48:42;;;;;;;32.20;10.57;;;0.00;98.40;;;;;;5099464;28;20475;-76
2023/12/02 08:51:08;;;;;;;27.92;10.60;;;0.20;99.00;;;;;;5092352;28;20016;-77
2023/12/02 08:53:34;;;;;;;33.47;10.45;;;0.50;98.70;;;;;;5096728;28;20542;-77
2023/12/02 08:56:00;;;;;;;25.17;9.20;;;0.70;98.10;;;;;;5097496;28;20028;-76
2023/12/02 08:58:25;;;;;;;32.20;9.25;;;0.90;97.60;;;;;;5092010;28;20043;-76
2023/12/02 09:00:51;;;;;;;28.38;9.18;;;0.80;96.30;;;;;;5089611;28;20035;-76
2023/12/02 09:03:17;;;;;;;28.30;9.50;;;0.80;96.70;;;;;;5089457;28;20059;-76
2023/12/02 09:05:43;;;;;;;31.55;9.82;;;0.90;96.90;;;;;;5093541;28;20115;-76
2023/12/02 09:08:08;;;;;;;27.15;9.95;;;0.80;96.90;;;;;;5091997;28;20124;-76
2023/12/02 09:10:34;;;;;;;26.77;9.45;;;0.90;96.90;;;;;;5090035;28;20024;-75
2023/12/02 09:13:00;;;;;;;31.40;8.57;;;0.90;96.90;;;;;;5095396;28;20104;-76
2023/12/02 09:15:42;;;;;;;34.20;8.13;;;1.10;96.60;;;;;;5093486;28;20073;-75
2023/12/02 09:18:11;;;;;;;24.77;8.02;;;0.80;96.10;;;;;;5092208;28;20043;-75
2023/12/02 09:20:55;;;;;;;21.20;7.25;;;0.50;97.00;;;;;;5086011;28;20039;-75
2023/12/02 09:23:21;;;;;;;36.97;8.63;;;0.70;97.10;;;;;;5084643;28;20032;-75
2023/12/02 09:25:48;;;;;;;27.45;7.88;;;0.30;96.70;;;;;;5091922;28;20048;-75
2023/12/02 09:28:18;;;;;;;22.20;8.05;;;0.20;97.20;;;;;;5091589;28;20028;-76
2023/12/02 09:31:01;;;;;;;22.08;7.90;;;0.30;97.70;;;;;;5088213;28;20640;-75
2023/12/02 09:33:28;;;;;;;22.27;7.32;;;0.50;97.30;;;;;;5090066;28;20463;-77
2023/12/02 09:35:56;;;;;;;17.95;6.63;;;0.70;97.10;;;;;;5094699;28;20029;-78
2023/12/02 09:38:22;;;;;;;21.00;8.55;;;1.00;96.10;;;;;;5093640;28;20036;-76
2023/12/02 09:41:19;;;;;;;21.17;7.03;;;1.30;95.40;;;;;;5088052;28;20021;-76
2023/12/02 09:44:04;;;;;;;19.60;7.80;;;1.50;95.10;;;;;;5088098;28;20394;-77
2023/12/02 09:46:32;;;;;;;20.95;7.75;;;1.70;94.70;;;;;;5089974;28;20096;-78
2023/12/02 09:49:37;;;;;;;19.00;7.10;;;1.80;94.20;;;;;;5100994;28;20441;-77
2023/12/02 09:52:12;;;;;;;19.33;7.30;;;1.90;93.60;;;;;;5092307;28;20020;-78
2023/12/02 09:55:02;;;;;;;17.83;8.00;;;2.00;93.40;;;;;;5098190;28;20506;-77
2023/12/02 09:57:33;;;;;;;18.35;6.50;;;2.30;92.90;;;;;;5090146;28;20028;-77
2023/12/02 10:00:12;;;;;;;16.92;6.68;;;2.30;92.50;;;;;;5094729;28;20016;-76
2023/12/02 10:02:57;;;;;;;20.35;7.00;;;2.20;92.30;;;;;;5096887;28;20250;-76
2023/12/02 10:05:23;;;;;;;17.60;6.82;;;2.30;91.80;;;;;;5094935;28;20024;-76
2023/12/02 10:08:09;;;;;;;19.52;7.68;;;2.40;91.80;;;;;;5093289;28;20205;-76
2023/12/02 10:11:14;;;;;;;22.75;7.60;;;2.40;91.80;;;;;;5097605;28;20122;-77
2023/12/02 10:13:50;;;;;;;19.33;7.72;;;2.10;91.50;;;;;;5094764;28;20733;-75
2023/12/02 10:16:20;;;;;;;20.13;8.07;;;1.70;92.80;;;;;;5094141;28;20168;-78
2023/12/02 10:18:53;;;;;;;20.42;7.32;;;1.40;93.90;;;;;;5093806;28;20035;-78
2023/12/02 10:21:20;;;;;;;25.33;7.80;;;1.60;94.20;;;;;;5094069;28;20077;-77
2023/12/02 10:24:08;;;;;;;23.40;8.30;;;1.80;94.60;;;;;;5090901;28;20412;-77
2023/12/02 10:26:53;;;;;;;24.77;8.23;;;2.00;94.20;;;;;;5088792;28;20027;-76
2023/12/02 10:29:28;;;;;;;20.48;7.10;;;2.10;93.10;;;;;;5092233;28;20028;-76
2023/12/02 10:32:01;;;;;;;20.27;6.47;;;2.10;93.00;;;;;;5094227;28;20126;-76
2023/12/02 10:34:43;;;;;;;18.33;6.80;;;1.50;92.70;;;;;;5090181;28;20016;-76
2023/12/02 10:37:11;;;;;;;14.98;6.35;;;0.90;94.40;;;;;;5090337;28;20028;-76
2023/12/02 10:39:43;;;;;;;16.85;5.88;;;1.20;95.80;;;;;;5092478;28;20031;-76
2023/12/02 10:42:17;;;;;;;18.48;6.80;;;1.50;95.00;;;;;;5088599;28;20016;-76
2023/12/02 10:44:44;;;;;;;16.05;5.65;;;1.80;93.40;;;;;;5092596;28;20048;-76
2023/12/02 10:47:11;;;;;;;15.10;6.03;;;2.00;93.40;;;;;;5100458;28;20027;-77
2023/12/02 10:49:38;;;;;;;14.70;6.00;;;2.20;93.10;;;;;;5093896;28;20119;-77
2023/12/02 10:52:06;;;;;;;16.58;6.38;;;2.40;92.90;;;;;;5088554;28;20216;-75
2023/12/02 10:54:34;;;;;;;19.30;6.68;;;2.60;92.50;;;;;;5093721;28;20042;-77
2023/12/02 10:57:07;;;;;;;15.52;6.40;;;2.50;92.10;;;;;;5092607;28;20020;-78
2023/12/02 10:59:40;;;;;;;15.98;6.65;;;2.00;92.70;;;;;;5091788;28;20533;-76
2023/12/02 11:02:29;;;;;;;13.55;5.55;;;1.70;93.80;;;;;;5091604;28;20089;-77
2023/12/02 11:05:16;;;;;;;15.77;5.97;;;1.60;93.50;;;;;;5092236;28;20031;-77
2023/12/02 11:07:48;;;;;;;15.70;5.30;;;1.20;93.80;;;;;;5091705;28;20353;-76
2023/12/02 11:10:19;;;;;;;19.10;5.72;;;1.10;94.70;;;;;;5095183;28;20565;-77
2023/12/02 11:12:51;;;;;;;15.10;6.32;;;0.90;94.20;;;;;;5095502;28;20029;-77
2023/12/02 11:15:22;;;;;;;17.83;6.75;;;0.90;95.70;;;;;;5095650;28;20031;-76
2023/12/02 11:17:54;;;;;;;18.10;6.20;;;1.20;95.60;;;;;;5093718;28;20040;-76
2023/12/02 11:20:39;;;;;;;12.13;5.63;;;1.30;93.50;;;;;;5093681;28;20032;-76
2023/12/02 11:23:26;;;;;;;15.70;6.22;;;1.40;93.00;;;;;;5095279;28;20080;-75
2023/12/02 11:26:31;;;;;;;17.73;6.30;;;1.80;93.00;;;;;;5099400;28;20040;-76
2023/12/02 11:29:02;;;;;;;15.02;6.63;;;1.90;91.60;;;;;;5090578;28;20039;-75
2023/12/02 11:32:00;;;;;;;18.75;6.85;;;2.10;91.60;;;;;;5090804;28;20028;-76
2023/12/02 11:34:55;;;;;;;15.07;6.65;;;2.20;91.90;;;;;;5097697;28;20051;-76
2023/12/02 11:37:57;;;;;;;20.35;7.00;;;2.40;91.60;;;;;;5120500;28;20083;-76
2023/12/02 11:40:49;;;;;;;20.60;7.80;;;2.20;91.30;;;;;;5116636;28;20067;-75
2023/12/02 11:43:33;;;;;;;23.13;9.75;;;1.90;91.50;;;;;;5115007;28;20020;-76
2023/12/02 11:46:04;;;;;;;23.67;10.05;;;1.20;93.10;;;;;;5099620;28;20044;-76
2023/12/02 11:48:57;;;;;;;19.98;8.75;;;1.30;94.10;;;;;;5098225;28;20155;-76
2023/12/02 11:52:03;;;;;;;18.50;7.78;;;1.70;94.30;;;;;;5087078;28;20178;-76
2023/12/02 11:54:37;;;;;;;19.50;7.80;;;2.10;92.80;;;;;;5090009;28;20065;-75
2023/12/02 11:57:32;;;;;;;23.38;9.05;;;2.50;91.60;;;;;;5087471;28;20059;-77
2023/12/02 12:00:09;;;;;;;23.40;9.85;;;2.80;90.50;;;;;;5092552;28;20522;-77
2023/12/02 12:03:03;;;;;;;21.70;8.27;;;2.80;90.10;;;;;;5093083;28;20092;-76
2023/12/02 12:06:00;;;;;;;16.40;6.40;;;2.70;89.70;;;;;;5097336;28;20012;-75
2023/12/02 12:08:34;;;;;;;13.75;6.43;;;2.60;90.70;;;;;;5097253;28;21060;-77
2023/12/02 12:11:02;;;;;;;15.53;6.80;;;2.90;90.50;;;;;;5092059;28;20023;-78
2023/12/02 12:13:31;;;;;;;16.38;7.00;;;3.10;88.90;;;;;;5096732;28;20016;-76
2023/12/02 12:15:57;;;;;;;21.58;8.80;;;3.30;88.50;;;;;;5089588;28;20736;-75
2023/12/02 12:18:23;;;;;;;21.05;8.45;;;3.50;87.80;;;;;;5094842;28;20107;-75
2023/12/02 12:20:55;;;;;;;24.13;9.32;;;3.70;86.90;;;;;;5092941;28;20028;-77
2023/12/02 12:23:23;;;;;;;22.52;9.70;;;3.80;86.10;;;;;;5092208;28;20016;-77
2023/12/02 12:25:50;;;;;;;24.38;9.20;;;3.90;85.20;;;;;;5094428;28;20045;-77
2023/12/02 12:28:15;;;;;;;23.58;9.75;;;4.00;85.80;;;;;;5092399;28;20138;-77
2023/12/02 12:30:44;;;;;;;22.52;9.48;;;4.00;85.00;;;;;;5073165;28;20527;-77
2023/12/02 12:33:13;;;;;;;26.35;11.13;;;4.00;84.20;;;;;;5089014;28;20716;-77
2023/12/02 12:35:39;;;;;;;30.10;12.27;;;3.70;84.00;;;;;;5096295;28;20031;-77
2023/12/02 12:38:07;;;;;;;27.13;12.18;;;3.20;86.90;;;;;;5091554;28;20040;-77
2023/12/02 12:40:35;;;;;;;26.80;11.80;;;2.90;89.80;;;;;;5088509;28;22086;-77
2023/12/02 12:43:01;;;;;;;30.73;13.80;;;2.70;90.30;;;;;;5091121;28;20073;-76
2023/12/02 12:45:27;;;;;;;29.55;12.75;;;2.70;90.90;;;;;;5089661;28;20071;-77
2023/12/02 12:47:54;;;;;;;28.42;12.18;;;2.60;90.80;;;;;;5091220;28;20478;-77
2023/12/02 12:50:22;;;;;;;30.33;12.15;;;2.60;91.10;;;;;;5095313;28;20070;-77